Time;durP1;ratioP1;P1;durP2;ratioP2;P2;SDS_P1;SDS_P2;PMS_P1;PMS_P2;Temp;Humidity;BMP_temperature;BMP_pressure;BME280_temperature;BME280_humidity;BME280_pressure;Samples;Min_cycle;Max_cycle;Signal;HPM_P1;HPM_P2
2024/01/29 00:00:10;;;;;;;5.43;4.10;;;6.20;73.20;;;;;;4827456;29;20198;-73
2024/01/29 00:02:37;;;;;;;5.80;3.70;;;6.20;73.00;;;;;;4813642;29;20208;-74
2024/01/29 00:05:03;;;;;;;7.23;3.30;;;6.20;73.10;;;;;;4811088;29;20573;-73
2024/01/29 00:07:28;;;;;;;7.83;3.80;;;6.20;73.10;;;;;;4811314;29;20424;-73
2024/01/29 00:09:54;;;;;;;6.07;3.60;;;6.20;73.10;;;;;;4827592;29;20183;-75
2024/01/29 00:12:20;;;;;;;6.70;3.37;;;6.20;73.10;;;;;;4811308;29;20477;-73
2024/01/29 00:14:47;;;;;;;8.67;4.00;;;6.20;72.80;;;;;;4810864;29;20601;-72
2024/01/29 00:17:13;;;;;;;4.10;3.00;;;6.30;72.50;;;;;;4826685;29;20214;-73
2024/01/29 00:19:38;;;;;;;6.47;4.13;;;6.20;72.50;;;;;;4816280;29;20784;-72
2024/01/29 00:22:04;;;;;;;4.67;3.50;;;6.20;72.90;;;;;;4816285;29;20215;-74
2024/01/29 00:24:29;;;;;;;7.60;3.63;;;6.10;73.20;;;;;;4811665;29;20206;-74
2024/01/29 00:26:55;;;;;;;5.60;2.80;;;6.00;74.20;;;;;;4811805;29;20214;-72
2024/01/29 00:29:20;;;;;;;6.17;3.30;;;6.00;73.60;;;;;;4808366;29;20201;-72
2024/01/29 00:31:46;;;;;;;4.33;3.20;;;6.00;73.80;;;;;;4806874;29;20253;-71
2024/01/29 00:34:12;;;;;;;5.13;3.40;;;6.00;73.70;;;;;;4809321;29;20191;-72
2024/01/29 00:36:37;;;;;;;4.87;3.17;;;6.00;73.80;;;;;;4805933;29;20233;-72
2024/01/29 00:39:08;;;;;;;25.43;5.20;;;6.00;73.80;;;;;;4807047;29;20790;-72
2024/01/29 00:41:33;;;;;;;6.53;3.30;;;5.90;73.80;;;;;;4806606;29;20498;-72
2024/01/29 00:43:59;;;;;;;4.93;3.60;;;5.80;74.00;;;;;;4807145;29;20424;-72
2024/01/29 00:46:24;;;;;;;5.33;3.10;;;5.80;74.30;;;;;;4807012;29;20222;-72
2024/01/29 00:48:50;;;;;;;6.97;3.37;;;5.90;74.70;;;;;;4811541;29;20226;-72
2024/01/29 00:51:16;;;;;;;7.63;3.80;;;5.90;74.80;;;;;;4806764;29;20250;-73
2024/01/29 00:53:41;;;;;;;6.37;3.73;;;5.80;74.80;;;;;;4808223;29;20198;-73
2024/01/29 00:56:07;;;;;;;6.37;3.40;;;5.90;74.90;;;;;;4808341;29;20530;-73
2024/01/29 00:58:33;;;;;;;2.77;2.37;;;5.90;75.10;;;;;;4806944;29;20442;-72
2024/01/29 01:00:59;;;;;;;5.80;3.50;;;5.90;75.10;;;;;;4806960;29;20593;-73
2024/01/29 01:03:24;;;;;;;4.07;3.27;;;5.90;75.10;;;;;;4814174;29;20443;-72
2024/01/29 01:05:50;;;;;;;4.43;3.13;;;5.90;75.00;;;;;;4810703;29;20222;-72
2024/01/29 01:08:15;;;;;;;7.90;3.33;;;6.00;75.00;;;;;;4811033;29;20604;-72
2024/01/29 01:10:41;;;;;;;5.00;3.57;;;6.00;74.90;;;;;;4810728;29;20260;-73
2024/01/29 01:13:07;;;;;;;6.30;3.30;;;6.10;74.80;;;;;;4809819;29;20201;-73
2024/01/29 01:15:32;;;;;;;5.53;3.90;;;6.00;74.60;;;;;;4810695;29;20287;-73
2024/01/29 01:17:58;;;;;;;5.57;3.73;;;6.00;74.80;;;;;;4812784;29;20225;-72
2024/01/29 01:20:24;;;;;;;7.13;3.50;;;6.00;74.80;;;;;;4816139;29;20559;-72
2024/01/29 01:22:50;;;;;;;8.73;3.30;;;6.10;75.00;;;;;;4811944;29;20191;-72
2024/01/29 01:25:15;;;;;;;6.10;3.43;;;6.00;75.00;;;;;;4810356;29;20601;-72
2024/01/29 01:27:41;;;;;;;6.40;3.30;;;5.90;74.90;;;;;;4810135;29;20430;-72
2024/01/29 01:30:08;;;;;;;4.73;3.20;;;6.00;75.10;;;;;;4809535;29;20194;-71
2024/01/29 01:32:33;;;;;;;4.90;3.50;;;6.00;74.90;;;;;;4810481;29;20529;-71
2024/01/29 01:34:59;;;;;;;3.60;2.50;;;6.10;74.90;;;;;;4811902;29;20523;-71
2024/01/29 01:37:24;;;;;;;5.07;3.13;;;6.10;74.80;;;;;;4809991;29;20255;-73
2024/01/29 01:39:52;;;;;;;5.23;3.63;;;6.10;74.90;;;;;;4809514;29;20190;-72
2024/01/29 01:42:18;;;;;;;6.47;3.50;;;5.90;74.60;;;;;;4811736;29;20202;-71
2024/01/29 01:44:46;;;;;;;5.07;3.17;;;6.10;75.70;;;;;;4809431;29;20432;-72
2024/01/29 01:47:11;;;;;;;6.40;3.63;;;6.10;74.60;;;;;;4809600;29;20474;-73
2024/01/29 01:49:39;;;;;;;3.97;3.47;;;6.20;74.60;;;;;;4810491;29;20507;-71
2024/01/29 01:52:06;;;;;;;6.00;2.97;;;6.20;74.20;;;;;;4806163;29;20428;-72
2024/01/29 01:54:32;;;;;;;5.93;3.90;;;6.20;74.10;;;;;;4809888;29;21155;-71
2024/01/29 01:56:58;;;;;;;4.80;3.40;;;6.20;73.90;;;;;;4809632;29;20746;-72
2024/01/29 01:59:25;;;;;;;4.50;3.20;;;6.20;73.80;;;;;;4811318;29;20463;-73
2024/01/29 02:01:52;;;;;;;4.80;3.20;;;6.30;73.90;;;;;;4810685;29;20428;-72
2024/01/29 02:04:17;;;;;;;6.87;3.70;;;6.30;73.70;;;;;;4812058;29;20456;-73
2024/01/29 02:06:43;;;;;;;4.80;3.40;;;6.30;73.70;;;;;;4809329;29;20518;-72
2024/01/29 02:09:09;;;;;;;5.83;3.10;;;6.20;73.70;;;;;;4809647;29;20598;-72
2024/01/29 02:11:35;;;;;;;4.07;2.93;;;6.30;73.80;;;;;;4809665;29;20458;-72
2024/01/29 02:14:00;;;;;;;5.50;2.70;;;6.20;73.70;;;;;;4809013;29;20198;-71
2024/01/29 02:16:26;;;;;;;3.60;3.20;;;6.20;73.80;;;;;;4809022;29;20297;-71
2024/01/29 02:18:51;;;;;;;4.07;3.47;;;6.20;73.70;;;;;;4810997;29;20201;-71
2024/01/29 02:21:17;;;;;;;4.70;3.30;;;6.20;73.70;;;;;;4811024;29;20256;-71
2024/01/29 02:23:46;;;;;;;4.17;3.20;;;6.20;74.00;;;;;;4809036;29;20206;-73
2024/01/29 02:26:13;;;;;;;5.87;3.40;;;6.10;74.10;;;;;;4809073;29;20514;-72
2024/01/29 02:28:38;;;;;;;5.00;3.57;;;6.10;74.00;;;;;;4808962;29;20420;-72
2024/01/29 02:31:04;;;;;;;4.27;3.03;;;6.00;74.10;;;;;;4810353;29;20443;-73
2024/01/29 02:33:30;;;;;;;4.17;3.00;;;6.00;74.40;;;;;;4811074;29;20210;-72
2024/01/29 02:35:56;;;;;;;4.80;2.80;;;6.00;74.50;;;;;;4808727;29;20256;-72
2024/01/29 02:38:21;;;;;;;5.77;3.53;;;6.00;74.70;;;;;;4809079;29;20459;-72
2024/01/29 02:40:47;;;;;;;4.47;3.47;;;5.90;74.80;;;;;;4809218;29;20194;-71
2024/01/29 02:43:13;;;;;;;5.43;3.40;;;5.90;74.80;;;;;;4808478;29;20202;-73
2024/01/29 02:45:39;;;;;;;5.70;3.17;;;6.00;75.00;;;;;;4808911;29;20654;-73
2024/01/29 02:48:05;;;;;;;3.93;2.90;;;6.00;74.90;;;;;;4808747;29;20428;-73
2024/01/29 02:50:31;;;;;;;4.00;2.90;;;6.00;75.00;;;;;;4808695;29;20226;-72
2024/01/29 02:52:58;;;;;;;4.10;3.07;;;5.90;75.10;;;;;;4808764;29;20439;-72
2024/01/29 02:55:24;;;;;;;4.30;3.10;;;6.00;75.20;;;;;;4808769;29;20217;-72
2024/01/29 02:57:49;;;;;;;6.73;2.90;;;6.00;75.20;;;;;;4808421;29;20431;-72
2024/01/29 03:00:15;;;;;;;6.53;2.60;;;6.00;75.20;;;;;;4808769;29;20236;-74
2024/01/29 03:02:41;;;;;;;6.23;3.30;;;6.00;75.40;;;;;;4808535;29;20508;-72
2024/01/29 03:05:07;;;;;;;4.20;2.70;;;5.90;75.50;;;;;;4813748;29;20253;-72
2024/01/29 03:07:32;;;;;;;4.33;2.97;;;5.80;75.70;;;;;;4808701;29;20220;-72
2024/01/29 03:09:58;;;;;;;4.57;3.10;;;5.80;76.00;;;;;;4808780;29;20423;-71
2024/01/29 03:12:23;;;;;;;3.87;2.90;;;5.80;76.50;;;;;;4808706;29;20195;-71
2024/01/29 03:14:49;;;;;;;3.50;2.60;;;5.70;76.10;;;;;;4808131;29;20259;-71
2024/01/29 03:17:14;;;;;;;7.13;3.47;;;5.70;76.40;;;;;;4808453;29;20314;-72
2024/01/29 03:19:40;;;;;;;5.30;3.10;;;5.70;76.70;;;;;;4812957;29;20183;-72
2024/01/29 03:22:06;;;;;;;4.00;3.30;;;5.70;76.70;;;;;;4809259;29;20228;-71
2024/01/29 03:24:31;;;;;;;3.70;2.77;;;5.70;76.90;;;;;;4809248;29;20206;-72
2024/01/29 03:26:57;;;;;;;5.03;3.33;;;5.60;76.90;;;;;;4806679;29;20365;-72
2024/01/29 03:29:22;;;;;;;6.33;3.40;;;5.60;77.00;;;;;;4808279;29;20256;-71
2024/01/29 03:31:48;;;;;;;5.00;2.97;;;5.60;77.30;;;;;;4808643;29;20205;-71
2024/01/29 03:34:13;;;;;;;7.90;3.00;;;5.60;77.40;;;;;;4812196;29;20213;-72
2024/01/29 03:36:39;;;;;;;5.00;3.27;;;5.50;77.80;;;;;;4810047;29;20273;-72
2024/01/29 03:39:04;;;;;;;7.00;3.07;;;5.50;77.60;;;;;;4807696;29;20202;-72
2024/01/29 03:41:34;;;;;;;5.57;3.73;;;5.50;78.00;;;;;;4808309;29;20286;-72
2024/01/29 03:43:59;;;;;;;5.30;3.40;;;5.40;78.30;;;;;;4807919;29;20198;-72
2024/01/29 03:46:25;;;;;;;4.77;2.80;;;5.40;78.50;;;;;;4808045;29;20498;-72
2024/01/29 03:48:50;;;;;;;4.07;2.60;;;5.40;78.80;;;;;;4824879;29;20274;-71
2024/01/29 03:51:16;;;;;;;4.33;3.00;;;5.30;78.90;;;;;;4807538;29;20205;-71
2024/01/29 03:53:41;;;;;;;4.30;3.30;;;5.30;79.20;;;;;;4806046;29;20202;-74
2024/01/29 03:56:07;;;;;;;4.60;3.20;;;5.30;79.40;;;;;;4807107;29;20640;-73
2024/01/29 03:58:32;;;;;;;5.53;3.17;;;5.40;79.70;;;;;;4807440;29;20206;-71
2024/01/29 04:00:58;;;;;;;3.90;3.07;;;5.40;79.70;;;;;;4807517;29;20243;-73
2024/01/29 04:03:24;;;;;;;4.43;3.17;;;5.50;79.40;;;;;;4810557;29;20209;-73
2024/01/29 04:05:49;;;;;;;4.63;3.00;;;5.60;79.30;;;;;;4807561;29;20261;-72
2024/01/29 04:08:15;;;;;;;5.43;3.50;;;5.60;79.20;;;;;;4807752;29;20203;-72
2024/01/29 04:10:40;;;;;;;4.20;3.37;;;5.60;79.10;;;;;;4807516;29;20198;-72
2024/01/29 04:13:06;;;;;;;8.90;3.63;;;5.60;79.10;;;;;;4807549;29;20213;-73
2024/01/29 04:15:31;;;;;;;5.40;3.40;;;5.70;79.20;;;;;;4807540;29;20306;-71
2024/01/29 04:17:57;;;;;;;4.23;3.03;;;5.60;79.20;;;;;;4809794;29;20623;-72
2024/01/29 04:20:23;;;;;;;3.30;3.00;;;5.50;79.30;;;;;;4812142;29;20185;-72
2024/01/29 04:22:48;;;;;;;8.70;3.93;;;5.60;79.70;;;;;;4807999;29;20198;-72
2024/01/29 04:25:14;;;;;;;5.00;3.53;;;5.50;79.90;;;;;;4807458;29;20472;-71
2024/01/29 04:27:39;;;;;;;5.43;3.73;;;5.50;80.10;;;;;;4807515;29;20289;-72
2024/01/29 04:30:06;;;;;;;4.53;3.23;;;5.40;80.30;;;;;;4807774;29;20218;-72
2024/01/29 04:32:31;;;;;;;4.53;3.67;;;5.40;80.70;;;;;;4807614;29;20202;-71
2024/01/29 04:34:57;;;;;;;6.43;3.30;;;5.40;80.90;;;;;;4814719;29;20435;-73
2024/01/29 04:37:24;;;;;;;7.37;4.53;;;5.40;81.10;;;;;;4807776;29;20214;-73
2024/01/29 04:39:49;;;;;;;5.83;3.50;;;5.40;81.20;;;;;;4806707;29;20491;-73
2024/01/29 04:42:15;;;;;;;6.13;4.30;;;5.40;81.10;;;;;;4806687;29;20416;-73
2024/01/29 04:44:41;;;;;;;6.43;4.00;;;5.40;81.20;;;;;;4805863;29;20234;-72
2024/01/29 04:47:06;;;;;;;4.40;3.20;;;5.40;81.30;;;;;;4806784;29;20210;-73
2024/01/29 04:49:32;;;;;;;6.07;3.70;;;5.40;81.30;;;;;;4807984;29;20287;-72
2024/01/29 04:51:57;;;;;;;5.03;3.07;;;5.30;81.50;;;;;;4808384;29;20199;-74
2024/01/29 04:54:23;;;;;;;5.57;3.90;;;5.30;82.00;;;;;;4806294;29;20279;-73
2024/01/29 04:56:48;;;;;;;6.70;3.77;;;5.20;82.30;;;;;;4806989;29;20222;-71
2024/01/29 04:59:14;;;;;;;4.03;2.97;;;5.20;82.60;;;;;;4807053;29;20321;-74
2024/01/29 05:01:40;;;;;;;4.60;3.07;;;5.20;82.90;;;;;;4810252;29;20581;-73
2024/01/29 05:04:05;;;;;;;5.30;3.67;;;5.20;83.00;;;;;;4815418;29;20202;-72
2024/01/29 05:06:31;;;;;;;5.33;3.50;;;5.20;83.00;;;;;;4809916;29;20222;-73
2024/01/29 05:08:56;;;;;;;4.90;3.53;;;5.10;83.40;;;;;;4809800;29;20198;-73
2024/01/29 05:11:22;;;;;;;7.13;4.63;;;5.10;83.60;;;;;;4826679;29;20187;-74
2024/01/29 05:13:48;;;;;;;5.90;4.30;;;5.10;83.80;;;;;;4811006;29;20186;-74
2024/01/29 05:16:15;;;;;;;7.60;4.20;;;5.10;84.00;;;;;;4810123;29;20214;-71
2024/01/29 05:18:41;;;;;;;9.47;4.60;;;5.10;84.30;;;;;;4830655;29;20420;-72
2024/01/29 05:21:07;;;;;;;8.10;4.40;;;5.10;84.40;;;;;;4818930;29;20440;-72
2024/01/29 05:23:33;;;;;;;5.50;3.93;;;5.00;84.50;;;;;;4819397;29;20440;-71
2024/01/29 05:25:59;;;;;;;4.67;4.20;;;5.00;85.20;;;;;;4818057;29;20234;-73
2024/01/29 05:28:25;;;;;;;5.37;3.97;;;4.90;85.20;;;;;;4818980;29;20413;-73
2024/01/29 05:30:53;;;;;;;7.57;4.33;;;4.90;85.50;;;;;;4818447;29;20198;-74
2024/01/29 05:33:19;;;;;;;6.13;4.00;;;4.90;85.70;;;;;;4824233;29;20182;-73
2024/01/29 05:35:44;;;;;;;5.50;3.90;;;4.90;86.00;;;;;;4818646;29;20459;-75
2024/01/29 05:38:10;;;;;;;5.87;3.40;;;4.90;86.10;;;;;;4812978;29;20203;-73
2024/01/29 05:40:36;;;;;;;7.97;4.00;;;4.90;86.20;;;;;;4811381;29;20581;-72
2024/01/29 05:43:01;;;;;;;5.00;3.90;;;4.90;86.70;;;;;;4813381;29;20212;-75
2024/01/29 05:45:27;;;;;;;10.93;5.20;;;4.80;86.70;;;;;;4813839;29;20233;-74
2024/01/29 05:47:52;;;;;;;5.47;4.20;;;4.90;88.00;;;;;;4816364;29;20210;-73
2024/01/29 05:50:18;;;;;;;8.60;5.20;;;4.90;87.10;;;;;;4822717;29;20234;-75
2024/01/29 05:52:44;;;;;;;4.87;4.30;;;4.80;87.10;;;;;;4819449;29;20183;-74
2024/01/29 05:55:10;;;;;;;8.27;4.23;;;4.80;87.30;;;;;;4801150;29;20274;-74
2024/01/29 05:57:36;;;;;;;7.80;4.53;;;4.80;87.50;;;;;;4815579;29;20205;-75
2024/01/29 06:00:06;;;;;;;5.70;4.17;;;4.80;87.60;;;;;;4816902;29;20465;-74
2024/01/29 06:02:42;;;;;;;7.73;4.93;;;4.80;87.90;;;;;;4818540;29;20706;-76
2024/01/29 06:05:10;;;;;;;7.40;4.40;;;4.80;88.30;;;;;;4819551;29;20507;-74
2024/01/29 06:07:35;;;;;;;4.93;3.63;;;4.70;88.70;;;;;;4814212;29;20432;-74
2024/01/29 06:10:01;;;;;;;5.87;4.23;;;4.60;88.90;;;;;;4815788;29;20893;-75
2024/01/29 06:12:26;;;;;;;6.70;4.67;;;4.60;89.40;;;;;;4815430;29;20194;-73
2024/01/29 06:14:52;;;;;;;8.83;4.87;;;4.60;89.90;;;;;;4815158;29;20182;-73
2024/01/29 06:17:18;;;;;;;9.97;3.90;;;4.60;90.10;;;;;;4830963;29;20215;-76
2024/01/29 06:19:43;;;;;;;6.77;4.93;;;4.60;90.20;;;;;;4814685;29;20582;-72
2024/01/29 06:22:09;;;;;;;9.30;4.97;;;4.60;90.30;;;;;;4817232;29;20190;-74
2024/01/29 06:24:35;;;;;;;6.83;4.00;;;4.60;90.40;;;;;;4817336;29;20207;-78
2024/01/29 06:27:00;;;;;;;7.17;5.30;;;4.60;90.60;;;;;;4819914;29;20253;-76
2024/01/29 06:29:27;;;;;;;5.93;4.67;;;4.50;90.70;;;;;;4815900;29;20424;-74
2024/01/29 06:31:52;;;;;;;10.07;4.50;;;4.60;90.90;;;;;;4814985;29;20199;-76
2024/01/29 06:34:18;;;;;;;7.00;5.93;;;4.50;91.00;;;;;;4818725;29;20930;-74
2024/01/29 06:36:44;;;;;;;9.40;4.60;;;4.50;91.30;;;;;;4819978;29;20218;-76
2024/01/29 06:39:09;;;;;;;8.63;5.10;;;4.60;91.30;;;;;;4836891;29;20490;-78
2024/01/29 06:41:35;;;;;;;6.97;4.67;;;4.60;91.40;;;;;;4816922;29;20226;-76
2024/01/29 06:44:01;;;;;;;7.00;4.80;;;4.60;91.50;;;;;;4813755;29;20187;-75
2024/01/29 06:46:26;;;;;;;5.93;4.57;;;4.50;91.50;;;;;;4814906;29;20210;-75
2024/01/29 06:48:52;;;;;;;9.90;4.93;;;4.50;91.80;;;;;;4817835;29;20226;-73
2024/01/29 06:51:17;;;;;;;10.73;5.27;;;4.60;91.90;;;;;;4817520;29;20190;-76
2024/01/29 06:53:44;;;;;;;6.60;4.10;;;4.60;92.10;;;;;;4815631;29;20190;-76
2024/01/29 06:56:10;;;;;;;6.27;4.70;;;4.60;92.10;;;;;;4814482;29;20257;-75
2024/01/29 06:58:36;;;;;;;5.93;4.57;;;4.60;92.30;;;;;;4829216;29;20820;-73
2024/01/29 07:01:02;;;;;;;7.10;5.07;;;4.60;92.40;;;;;;4814469;29;20258;-75
2024/01/29 07:03:28;;;;;;;8.63;4.80;;;4.60;92.60;;;;;;4830008;29;20455;-75
2024/01/29 07:05:54;;;;;;;7.23;4.70;;;4.60;92.70;;;;;;4800551;29;20484;-74
2024/01/29 07:08:20;;;;;;;11.63;5.77;;;4.60;92.90;;;;;;4813749;29;20440;-75
2024/01/29 07:10:46;;;;;;;8.10;5.03;;;4.70;92.90;;;;;;4815747;29;20416;-74
2024/01/29 07:13:12;;;;;;;9.90;5.50;;;4.60;93.10;;;;;;4817165;29;20574;-78
2024/01/29 07:15:38;;;;;;;9.17;5.20;;;4.70;93.20;;;;;;4818771;29;20605;-76
2024/01/29 07:18:04;;;;;;;7.80;5.60;;;4.80;93.40;;;;;;4805890;29;20504;-77
2024/01/29 07:20:37;;;;;;;7.17;4.93;;;4.70;93.40;;;;;;4820308;29;20443;-77
2024/01/29 07:23:04;;;;;;;10.90;5.73;;;4.90;93.30;;;;;;4816137;29;20777;-74
2024/01/29 07:25:31;;;;;;;6.30;4.73;;;4.90;93.40;;;;;;4833812;29;20476;-75
2024/01/29 07:27:59;;;;;;;7.27;4.97;;;4.90;93.60;;;;;;4816144;29;20434;-78
2024/01/29 07:30:25;;;;;;;7.57;5.50;;;4.80;93.80;;;;;;4799236;29;20428;-76
2024/01/29 07:32:51;;;;;;;8.27;4.33;;;5.00;94.00;;;;;;4816980;29;20439;-77
2024/01/29 07:35:16;;;;;;;8.20;5.00;;;4.80;94.10;;;;;;4814467;29;20218;-75
2024/01/29 07:37:42;;;;;;;7.33;4.97;;;4.90;94.20;;;;;;4815256;29;20444;-76
2024/01/29 07:40:09;;;;;;;6.50;4.53;;;4.80;94.30;;;;;;4813278;29;20279;-71
2024/01/29 07:42:34;;;;;;;6.20;4.50;;;4.80;94.60;;;;;;4797082;29;20206;-74
2024/01/29 07:45:00;;;;;;;6.23;4.43;;;4.70;94.90;;;;;;4813891;29;20909;-76
2024/01/29 07:47:26;;;;;;;7.17;4.50;;;4.70;95.10;;;;;;4814076;29;20197;-76
2024/01/29 07:49:51;;;;;;;10.87;7.00;;;4.70;95.40;;;;;;4830804;29;20362;-76
2024/01/29 07:52:17;;;;;;;9.47;6.73;;;4.80;95.60;;;;;;4815237;29;20432;-74
2024/01/29 07:54:42;;;;;;;8.37;5.93;;;4.80;95.60;;;;;;4813696;29;20722;-77
2024/01/29 07:57:08;;;;;;;8.23;5.03;;;4.90;95.70;;;;;;4814594;29;20220;-75
2024/01/29 07:59:34;;;;;;;8.13;5.57;;;4.90;95.60;;;;;;4816150;29;20198;-75
2024/01/29 08:01:59;;;;;;;12.80;5.53;;;5.00;95.60;;;;;;4817770;29;20197;-76
2024/01/29 08:04:25;;;;;;;10.50;5.53;;;4.90;95.40;;;;;;4817410;29;20198;-74
2024/01/29 08:06:51;;;;;;;7.83;5.60;;;5.00;95.40;;;;;;4816408;29;20214;-74
2024/01/29 08:09:17;;;;;;;11.33;6.40;;;5.00;95.40;;;;;;4828050;29;20644;-74
2024/01/29 08:11:42;;;;;;;7.67;5.23;;;5.00;95.50;;;;;;4808600;29;20305;-74
2024/01/29 08:14:08;;;;;;;9.10;5.60;;;5.00;95.60;;;;;;4828964;29;20452;-76
2024/01/29 08:16:34;;;;;;;7.47;5.70;;;5.10;95.80;;;;;;4815419;29;20231;-75
2024/01/29 08:19:00;;;;;;;7.57;5.60;;;5.10;95.90;;;;;;4829619;29;20191;-76
2024/01/29 08:21:26;;;;;;;8.37;5.97;;;5.20;95.80;;;;;;4823752;29;20436;-77
2024/01/29 08:23:52;;;;;;;5.83;5.20;;;5.20;95.80;;;;;;4817698;29;20293;-78
2024/01/29 08:26:17;;;;;;;9.23;5.33;;;5.20;95.90;;;;;;4814451;29;20218;-76
2024/01/29 08:28:43;;;;;;;9.33;6.20;;;5.30;95.90;;;;;;4819588;29;20168;-74
2024/01/29 08:31:09;;;;;;;7.30;5.60;;;5.40;96.00;;;;;;4830291;29;20198;-75
2024/01/29 08:33:34;;;;;;;11.47;4.90;;;5.40;95.80;;;;;;4834757;29;20214;-77
2024/01/29 08:36:00;;;;;;;7.07;5.50;;;5.60;95.60;;;;;;4816026;29;20786;-76
2024/01/29 08:38:26;;;;;;;7.67;5.63;;;5.60;95.40;;;;;;4818326;29;20202;-76
2024/01/29 08:40:51;;;;;;;8.80;5.20;;;5.70;95.20;;;;;;4820189;29;20190;-74
2024/01/29 08:43:19;;;;;;;7.60;5.33;;;5.80;95.10;;;;;;4818126;29;20183;-76
2024/01/29 08:45:45;;;;;;;6.60;4.97;;;5.90;94.80;;;;;;4817560;29;20282;-76
2024/01/29 08:48:11;;;;;;;8.47;6.23;;;6.00;94.90;;;;;;4818687;29;20431;-75
2024/01/29 08:50:37;;;;;;;7.00;5.23;;;5.90;94.70;;;;;;4831586;29;20467;-77
2024/01/29 08:53:03;;;;;;;8.63;6.07;;;6.10;94.50;;;;;;4833670;29;20179;-76
2024/01/29 08:55:30;;;;;;;7.57;4.90;;;6.10;94.10;;;;;;4819703;29;20666;-75
2024/01/29 08:57:56;;;;;;;11.53;6.20;;;6.20;94.00;;;;;;4818248;29;20511;-76
2024/01/29 09:00:24;;;;;;;9.50;6.37;;;6.20;93.80;;;;;;4815421;29;20507;-76
2024/01/29 09:02:51;;;;;;;6.30;5.30;;;6.30;93.70;;;;;;4840404;29;20427;-78
2024/01/29 09:05:18;;;;;;;11.30;6.30;;;6.30;93.70;;;;;;4823226;29;20475;-79
2024/01/29 09:07:45;;;;;;;8.77;5.50;;;6.40;93.30;;;;;;4806041;29;20194;-78
2024/01/29 09:10:11;;;;;;;6.00;5.00;;;6.40;93.20;;;;;;4819823;29;20443;-77
2024/01/29 09:12:37;;;;;;;7.10;5.73;;;6.50;93.00;;;;;;4820707;29;20503;-79
2024/01/29 09:15:04;;;;;;;8.83;5.33;;;6.50;92.90;;;;;;4838516;29;20512;-77
2024/01/29 09:17:31;;;;;;;9.70;5.60;;;6.60;93.00;;;;;;4831361;29;20190;-78
2024/01/29 09:19:59;;;;;;;7.77;6.17;;;6.60;92.70;;;;;;4830147;29;20419;-77
2024/01/29 09:22:25;;;;;;;7.80;5.63;;;6.60;92.70;;;;;;4796027;29;20938;-78
2024/01/29 09:24:51;;;;;;;9.33;5.77;;;6.70;92.80;;;;;;4828099;29;20493;-78
2024/01/29 09:27:18;;;;;;;9.63;6.40;;;6.70;92.60;;;;;;4830708;29;20254;-77
2024/01/29 09:29:44;;;;;;;8.67;5.80;;;6.80;92.40;;;;;;4844563;29;20221;-75
2024/01/29 09:32:10;;;;;;;7.90;5.73;;;6.80;92.10;;;;;;4807991;29;20466;-75
2024/01/29 09:34:36;;;;;;;7.60;5.27;;;6.90;92.10;;;;;;4824623;29;20233;-75
2024/01/29 09:37:02;;;;;;;7.90;6.20;;;6.90;92.20;;;;;;4833697;29;20847;-78
2024/01/29 09:39:27;;;;;;;10.03;5.83;;;7.00;92.00;;;;;;4790989;29;20596;-75
2024/01/29 09:42:01;;;;;;;8.23;6.50;;;7.00;91.90;;;;;;4820092;29;20455;-74
2024/01/29 09:44:28;;;;;;;7.17;4.93;;;7.10;91.80;;;;;;4818311;29;20198;-75
2024/01/29 09:47:22;;;;;;;9.67;6.13;;;7.10;91.70;;;;;;4825188;29;20483;-82
2024/01/29 09:56:51;;;;;;;8.00;6.03;;;7.50;91.50;;;;;;4804061;29;20954;-73
2024/01/29 09:59:16;;;;;;;11.00;6.10;;;7.50;91.20;;;;;;4801111;29;20448;-71
2024/01/29 10:01:42;;;;;;;8.33;5.80;;;7.60;91.30;;;;;;4800882;30;20213;-72
2024/01/29 10:04:08;;;;;;;9.17;5.90;;;7.60;91.20;;;;;;4784643;30;20215;-72
2024/01/29 10:06:33;;;;;;;8.53;6.10;;;7.50;91.20;;;;;;4799968;29;20929;-74
2024/01/29 10:08:59;;;;;;;6.87;5.50;;;7.60;91.20;;;;;;4800376;30;20219;-71
2024/01/29 10:11:25;;;;;;;8.37;5.40;;;7.70;91.20;;;;;;4798982;30;20280;-70
2024/01/29 10:13:58;;;;;;;10.40;6.70;;;7.80;91.00;;;;;;4801419;29;20199;-73
2024/01/29 10:16:24;;;;;;;6.80;5.30;;;8.00;90.70;;;;;;4801295;29;20249;-71
2024/01/29 10:19:00;;;;;;;6.70;5.97;;;8.10;90.70;;;;;;4801768;29;20432;-71
2024/01/29 10:21:26;;;;;;;8.50;6.33;;;8.10;90.50;;;;;;4799528;29;20201;-72
2024/01/29 10:23:56;;;;;;;10.30;6.07;;;8.20;90.10;;;;;;4799549;29;20554;-74
2024/01/29 10:26:22;;;;;;;10.17;6.43;;;8.20;90.10;;;;;;4797833;29;20491;-72
2024/01/29 10:29:09;;;;;;;10.97;6.23;;;8.30;90.00;;;;;;4800546;29;20947;-72
2024/01/29 10:31:35;;;;;;;8.80;6.30;;;8.40;89.80;;;;;;4794519;30;20524;-71
2024/01/29 10:34:02;;;;;;;9.27;7.03;;;8.50;89.90;;;;;;4800073;29;20436;-72
2024/01/29 10:36:29;;;;;;;9.53;6.57;;;8.60;89.60;;;;;;4799315;29;20539;-74
2024/01/29 10:38:55;;;;;;;7.70;5.90;;;8.70;89.50;;;;;;4800831;30;20437;-73
2024/01/29 10:41:22;;;;;;;8.37;6.17;;;8.70;89.30;;;;;;4802160;30;20435;-74
2024/01/29 10:43:48;;;;;;;7.37;5.83;;;8.80;89.00;;;;;;4799061;30;20449;-73
2024/01/29 10:46:22;;;;;;;8.10;6.00;;;8.90;88.50;;;;;;4797807;29;20498;-73
2024/01/29 10:48:49;;;;;;;8.50;6.03;;;9.00;88.60;;;;;;4799316;29;20437;-70
2024/01/29 10:51:16;;;;;;;8.47;5.50;;;9.00;88.40;;;;;;4797110;29;20551;-74
2024/01/29 10:53:43;;;;;;;9.67;6.23;;;9.00;88.40;;;;;;4799914;30;20416;-72
2024/01/29 10:56:09;;;;;;;8.60;5.00;;;9.20;88.30;;;;;;4799445;29;20573;-75
2024/01/29 10:58:36;;;;;;;7.07;5.30;;;9.20;88.10;;;;;;4801090;30;20437;-73
2024/01/29 11:01:03;;;;;;;8.10;6.17;;;9.30;87.90;;;;;;4798873;30;20421;-71
2024/01/29 11:03:29;;;;;;;10.23;5.83;;;9.30;87.30;;;;;;4797714;29;20440;-70
2024/01/29 11:06:00;;;;;;;7.93;6.90;;;9.50;86.40;;;;;;4798124;29;20761;-71
2024/01/29 11:08:31;;;;;;;10.67;6.40;;;9.50;86.20;;;;;;4797303;30;20444;-73
2024/01/29 11:10:57;;;;;;;9.67;6.40;;;9.50;86.10;;;;;;4797944;30;20425;-70
2024/01/29 11:13:24;;;;;;;8.33;5.50;;;9.50;85.50;;;;;;4795973;30;20438;-70
2024/01/29 11:15:50;;;;;;;6.87;5.40;;;9.60;85.50;;;;;;4797064;29;20457;-71
2024/01/29 11:18:16;;;;;;;9.60;5.63;;;9.60;85.20;;;;;;4800503;29;20441;-71
2024/01/29 11:20:41;;;;;;;9.30;5.67;;;9.60;85.20;;;;;;4798391;29;20520;-75
2024/01/29 11:23:10;;;;;;;12.83;7.37;;;9.70;85.00;;;;;;4796452;30;20187;-71
2024/01/29 11:25:37;;;;;;;8.30;5.67;;;9.90;84.60;;;;;;4797146;29;20294;-74
2024/01/29 11:28:06;;;;;;;9.60;7.63;;;9.90;84.20;;;;;;4796245;30;20436;-71
2024/01/29 11:30:32;;;;;;;9.47;6.43;;;9.90;84.10;;;;;;4801697;30;20520;-72
2024/01/29 11:33:16;;;;;;;11.90;7.07;;;10.00;82.70;;;;;;4804489;29;20436;-71
2024/01/29 11:35:42;;;;;;;11.70;5.77;;;10.00;82.60;;;;;;4800860;29;20286;-71
2024/01/29 11:38:13;;;;;;;10.30;6.77;;;10.00;82.30;;;;;;4801770;30;20516;-70
2024/01/29 11:40:41;;;;;;;7.40;6.67;;;10.10;82.30;;;;;;4800828;30;20437;-71
2024/01/29 11:43:16;;;;;;;8.80;5.47;;;10.20;82.40;;;;;;4798079;30;20432;-71
2024/01/29 11:45:49;;;;;;;9.53;6.60;;;10.20;82.40;;;;;;4798215;29;20528;-71
2024/01/29 11:48:17;;;;;;;8.60;6.60;;;10.20;82.40;;;;;;4798741;29;20451;-73
2024/01/29 11:50:46;;;;;;;7.40;5.97;;;10.20;82.40;;;;;;4798093;29;20797;-70
2024/01/29 11:53:14;;;;;;;10.27;6.03;;;10.30;82.60;;;;;;4797271;30;20440;-71
2024/01/29 11:55:40;;;;;;;9.80;6.23;;;10.30;82.70;;;;;;4796816;29;20468;-71
2024/01/29 11:58:15;;;;;;;6.00;5.27;;;10.40;82.80;;;;;;4795525;30;20434;-71
2024/01/29 12:00:42;;;;;;;10.73;6.20;;;10.40;82.70;;;;;;4797729;30;20421;-72
2024/01/29 12:03:10;;;;;;;9.20;5.40;;;10.60;82.60;;;;;;4798999;29;20420;-71
2024/01/29 12:05:36;;;;;;;7.47;5.87;;;10.70;82.80;;;;;;4797885;29;20477;-72
2024/01/29 12:08:02;;;;;;;6.70;5.60;;;10.90;82.40;;;;;;4795802;30;20419;-70
2024/01/29 12:10:27;;;;;;;6.93;5.40;;;10.80;82.20;;;;;;4798751;29;20453;-74
2024/01/29 12:12:53;;;;;;;7.37;5.63;;;10.90;82.00;;;;;;4798838;30;20492;-74
2024/01/29 12:15:19;;;;;;;9.10;5.93;;;11.00;81.60;;;;;;4798273;29;20215;-71
2024/01/29 12:17:48;;;;;;;10.80;5.43;;;10.90;81.40;;;;;;4799198;29;20654;-75
2024/01/29 12:20:14;;;;;;;7.97;5.97;;;11.00;81.40;;;;;;4794072;29;20204;-73
2024/01/29 12:22:41;;;;;;;6.83;5.80;;;11.00;80.90;;;;;;4800395;29;20517;-75
2024/01/29 12:25:11;;;;;;;11.87;6.60;;;11.10;81.00;;;;;;4800752;29;20210;-73
2024/01/29 12:27:40;;;;;;;9.60;6.43;;;11.20;81.00;;;;;;4798746;30;20435;-71
2024/01/29 12:30:15;;;;;;;10.70;5.17;;;11.30;80.90;;;;;;4798955;30;20474;-72
2024/01/29 12:32:43;;;;;;;11.67;5.23;;;11.20;80.90;;;;;;4798276;29;20699;-73
2024/01/29 12:35:28;;;;;;;9.63;5.90;;;11.30;80.90;;;;;;4801747;29;20624;-73
2024/01/29 12:38:03;;;;;;;7.10;5.33;;;11.30;80.40;;;;;;4800583;30;20433;-72
2024/01/29 12:40:28;;;;;;;7.63;5.70;;;11.40;80.50;;;;;;4797676;30;20430;-73
2024/01/29 12:43:02;;;;;;;7.57;5.43;;;11.30;80.50;;;;;;4799343;30;20872;-71
2024/01/29 12:45:28;;;;;;;7.77;5.40;;;11.30;80.80;;;;;;4799296;29;20231;-74
2024/01/29 12:48:10;;;;;;;6.13;4.63;;;11.30;81.00;;;;;;4801904;29;20444;-75
2024/01/29 12:50:40;;;;;;;9.53;6.17;;;11.30;81.30;;;;;;4793231;30;20222;-70
2024/01/29 12:53:09;;;;;;;10.20;6.10;;;11.40;81.40;;;;;;4782955;30;20466;-73
2024/01/29 12:55:35;;;;;;;9.77;6.23;;;11.40;81.10;;;;;;4796927;29;20999;-72
2024/01/29 12:58:02;;;;;;;6.80;5.57;;;11.50;81.20;;;;;;4800095;29;20461;-73